May Valley, Colorado
Current Conditions -  °F | °C
As of 3:53 AM on Wednesday 26 Nov 2014 (Local Time) from KLAA Reporting Station
Clear Clear  
Wind Chill: -7°   Ceiling: Unl
Heat Index: -4°   Visibility: 10mi
Dew Point: -5°   Wind: 5mph
Humidity: 92%   Direction: 250°WSW
Pressure: 30.17"   Gusts: NA
Location:  37.885°N, 102.667°W
Report Text: KLAA 261053Z AUTO 25004KT 10SM CLR M04/M05 A3017 RMK AO2 SLP221 T10391050
Loading
Personal Weather Stations






























Interactive Weather Map New forecast layout! Learn more

10-Day Weather Forecast

Advertisements
Track Severe Weather on mobile